createdAt,value
2022-12-24T00:01:06.687Z,80.13
2022-12-24T00:03:36.786Z,80.17
2022-12-24T00:06:09.275Z,80.31
2022-12-24T00:08:36.955Z,80.44
2022-12-24T00:11:05.224Z,80.50
2022-12-24T00:13:33.358Z,80.60
2022-12-24T00:16:01.547Z,80.67
2022-12-24T00:18:29.491Z,80.65
2022-12-24T00:20:57.047Z,80.72
2022-12-24T00:23:24.801Z,80.85
2022-12-24T00:25:52.599Z,81.02
2022-12-24T00:28:22.399Z,81.10
2022-12-24T00:30:50.121Z,81.20
2022-12-24T00:33:24.071Z,81.25
2022-12-24T00:35:51.167Z,81.25
2022-12-24T00:38:18.794Z,81.25
2022-12-24T00:40:46.200Z,81.18
2022-12-24T00:43:14.022Z,81.04
2022-12-24T00:45:41.663Z,80.96
2022-12-24T00:48:09.089Z,81.06
2022-12-24T00:50:36.443Z,81.11
2022-12-24T00:53:05.525Z,81.02
2022-12-24T00:55:33.001Z,80.93
2022-12-24T00:58:00.509Z,80.95
2022-12-24T01:00:28.499Z,80.83
2022-12-24T01:02:56.109Z,80.80
2022-12-24T01:05:24.782Z,80.70
2022-12-24T01:07:56.278Z,80.71
2022-12-24T01:10:24.772Z,80.60
2022-12-24T01:12:53.010Z,80.33
2022-12-24T01:15:21.597Z,80.24
2022-12-24T01:17:49.935Z,80.24
2022-12-24T01:20:18.909Z,80.06
2022-12-24T01:22:48.688Z,80.12
2022-12-24T01:25:17.063Z,80.18
2022-12-24T01:27:45.523Z,80.24
2022-12-24T01:30:15.353Z,80.34
2022-12-24T01:32:43.237Z,80.37
2022-12-24T01:35:12.315Z,80.46
2022-12-24T01:37:42.041Z,80.58
2022-12-24T01:40:35.784Z,80.69
2022-12-24T01:43:22.953Z,80.72
2022-12-24T01:46:04.541Z,80.79
2022-12-24T01:48:55.398Z,80.83
2022-12-24T01:51:40.610Z,80.92
2022-12-24T01:54:25.726Z,81.01
2022-12-24T01:56:58.444Z,80.99
2022-12-24T01:59:27.966Z,81.05
2022-12-24T02:01:55.627Z,81.08
2022-12-24T02:04:38.029Z,81.10
2022-12-24T02:07:05.906Z,81.00
2022-12-24T02:09:35.708Z,80.99
2022-12-24T02:12:06.117Z,81.02
2022-12-24T02:14:34.930Z,80.74
2022-12-24T02:17:22.900Z,80.66
2022-12-24T02:20:05.398Z,80.73
2022-12-24T02:23:00.280Z,80.98
2022-12-24T02:26:05.173Z,81.03
2022-12-24T02:28:59.622Z,80.85
2022-12-24T02:31:45.068Z,80.57
2022-12-24T02:34:29.931Z,80.44
2022-12-24T02:37:23.827Z,80.33
2022-12-24T02:39:56.744Z,80.32
2022-12-24T02:42:29.964Z,80.13
2022-12-24T02:45:10.924Z,80.30
2022-12-24T02:47:41.196Z,80.38
2022-12-24T02:50:12.187Z,80.44
2022-12-24T02:52:46.277Z,80.48
2022-12-24T02:55:19.071Z,80.51
2022-12-24T02:58:13.405Z,80.56
2022-12-24T03:00:55.829Z,80.68
2022-12-24T03:03:28.713Z,80.84
2022-12-24T03:06:13.824Z,80.93
2022-12-24T03:08:52.798Z,81.05
2022-12-24T03:11:20.744Z,81.12
2022-12-24T03:13:50.136Z,81.16
2022-12-24T03:16:23.419Z,81.11
2022-12-24T03:18:54.367Z,81.16
2022-12-24T03:21:32.956Z,81.26
2022-12-24T03:24:01.169Z,81.29
2022-12-24T03:26:31.300Z,81.28
2022-12-24T03:28:59.680Z,81.25
2022-12-24T03:31:27.308Z,81.31
2022-12-24T03:33:55.177Z,81.33
2022-12-24T03:36:24.923Z,81.69
2022-12-24T03:38:52.598Z,81.79
2022-12-24T03:41:20.087Z,81.37
2022-12-24T03:43:47.705Z,81.21
2022-12-24T03:46:15.430Z,81.22
2022-12-24T03:48:42.925Z,81.44
2022-12-24T03:51:20.195Z,80.96
2022-12-24T03:53:47.962Z,80.46
2022-12-24T03:56:15.635Z,80.52
2022-12-24T03:58:43.439Z,80.64
2022-12-24T04:01:11.313Z,80.87
2022-12-24T04:03:38.909Z,80.90
2022-12-24T04:06:13.322Z,80.87
2022-12-24T04:08:41.699Z,80.87
2022-12-24T04:11:13.120Z,80.90
2022-12-24T04:13:40.903Z,80.90
2022-12-24T04:16:12.574Z,80.99
2022-12-24T04:18:41.260Z,80.97
2022-12-24T04:21:10.192Z,81.03
2022-12-24T04:23:40.262Z,80.97
2022-12-24T04:26:11.199Z,80.87
2022-12-24T04:28:38.895Z,80.81
2022-12-24T04:31:11.374Z,80.91
2022-12-24T04:33:39.403Z,80.96
2022-12-24T04:36:08.353Z,80.96
2022-12-24T04:38:36.119Z,81.10
2022-12-24T04:41:13.735Z,81.04
2022-12-24T04:43:41.088Z,81.16
2022-12-24T04:46:15.201Z,81.36
2022-12-24T04:48:42.554Z,81.38
2022-12-24T04:51:10.924Z,81.35
2022-12-24T04:53:41.240Z,81.36
2022-12-24T04:56:14.331Z,81.32
2022-12-24T04:58:42.404Z,81.37
2022-12-24T05:01:23.109Z,81.51
2022-12-24T05:03:52.882Z,81.55
2022-12-24T05:06:24.537Z,81.52
2022-12-24T05:08:55.388Z,81.49
2022-12-24T05:11:22.921Z,81.35
2022-12-24T05:13:51.119Z,81.24
2022-12-24T05:16:21.237Z,81.20
2022-12-24T05:18:49.180Z,81.19
2022-12-24T05:21:21.075Z,81.03
2022-12-24T05:24:07.484Z,80.96
2022-12-24T05:26:44.785Z,80.76
2022-12-24T05:29:12.919Z,80.74
2022-12-24T05:31:42.289Z,80.61
2022-12-24T05:34:10.692Z,80.56
2022-12-24T05:36:39.085Z,80.48
2022-12-24T05:39:15.173Z,80.30
2022-12-24T05:41:38.722Z,80.39
2022-12-24T05:44:06.404Z,80.58
2022-12-24T05:46:34.434Z,80.70
2022-12-24T05:49:02.167Z,80.89
2022-12-24T05:51:29.718Z,81.13
2022-12-24T05:53:57.353Z,81.37
2022-12-24T05:56:25.870Z,81.52
2022-12-24T05:58:54.579Z,81.56
2022-12-24T06:01:22.946Z,81.68
2022-12-24T06:03:52.313Z,81.87
2022-12-24T06:06:23.792Z,81.93
2022-12-24T06:08:53.406Z,82.18
2022-12-24T06:11:26.675Z,82.08
2022-12-24T06:13:55.276Z,82.14
2022-12-24T06:16:27.209Z,82.30
2022-12-24T06:18:54.876Z,82.42
2022-12-24T06:21:22.844Z,82.51
2022-12-24T06:23:50.805Z,82.53
2022-12-24T06:26:21.761Z,82.49
2022-12-24T06:28:51.424Z,82.38
2022-12-24T06:31:22.121Z,82.12
2022-12-24T06:33:50.104Z,82.21
2022-12-24T06:36:22.192Z,82.09
2022-12-24T06:38:51.296Z,82.08
2022-12-24T06:41:19.276Z,81.92
2022-12-24T06:43:49.741Z,81.61
2022-12-24T06:46:19.153Z,81.56
2022-12-24T06:48:47.973Z,81.55
2022-12-24T06:51:19.228Z,81.43
2022-12-24T06:53:50.096Z,81.40
2022-12-24T06:56:19.954Z,81.30
2022-12-24T06:58:47.989Z,81.25
2022-12-24T07:01:18.802Z,81.30
2022-12-24T07:03:47.277Z,81.37
2022-12-24T07:06:25.181Z,81.50
2022-12-24T07:08:53.382Z,81.55
2022-12-24T07:11:21.452Z,81.56
2022-12-24T07:13:49.069Z,81.58
2022-12-24T07:16:17.217Z,82.01
2022-12-24T07:18:45.264Z,82.02
2022-12-24T07:21:12.912Z,82.22
2022-12-24T07:23:40.747Z,82.58
2022-12-24T07:26:08.638Z,82.82
2022-12-24T07:28:36.072Z,82.95
2022-12-24T07:31:04.044Z,83.48
2022-12-24T07:33:31.778Z,83.36
2022-12-24T07:36:09.825Z,83.56
2022-12-24T07:38:38.218Z,83.73
2022-12-24T07:41:06.004Z,83.97
2022-12-24T07:43:33.965Z,84.06
2022-12-24T07:46:02.015Z,83.99
2022-12-24T07:48:31.258Z,84.09
2022-12-24T07:50:59.553Z,84.04
2022-12-24T07:53:29.948Z,83.92
2022-12-24T07:55:58.358Z,83.58
2022-12-24T07:58:26.143Z,83.36
2022-12-24T08:00:59.464Z,83.14
2022-12-24T08:03:27.923Z,83.03
2022-12-24T08:05:57.024Z,82.98
2022-12-24T08:08:25.272Z,82.90
2022-12-24T08:10:53.169Z,82.75
2022-12-24T08:13:20.898Z,82.78
2022-12-24T08:15:48.396Z,82.66
2022-12-24T08:18:15.978Z,82.69
2022-12-24T08:20:43.580Z,82.65
2022-12-24T08:23:10.951Z,82.73
2022-12-24T08:25:47.910Z,82.74
2022-12-24T08:28:18.056Z,82.72
2022-12-24T08:30:49.408Z,82.77
2022-12-24T08:33:17.820Z,82.65
2022-12-24T08:35:52.307Z,82.72
2022-12-24T08:38:20.564Z,82.63
2022-12-24T08:40:49.489Z,82.61
2022-12-24T08:43:17.563Z,82.57
2022-12-24T08:45:46.600Z,82.47
2022-12-24T08:48:14.878Z,82.70
2022-12-24T08:50:43.198Z,82.87
2022-12-24T08:53:11.452Z,83.11
2022-12-24T08:55:39.192Z,83.20
2022-12-24T08:58:06.934Z,83.37
2022-12-24T09:00:34.719Z,83.53
2022-12-24T09:03:02.685Z,83.59
2022-12-24T09:05:30.676Z,83.63
2022-12-24T09:07:58.694Z,83.85
2022-12-24T09:10:26.157Z,84.11
2022-12-24T09:12:54.059Z,84.13
2022-12-24T09:15:21.983Z,84.01
2022-12-24T09:17:49.545Z,83.83
2022-12-24T09:20:19.591Z,83.49
2022-12-24T09:22:47.230Z,83.43
2022-12-24T09:25:14.815Z,83.44
2022-12-24T09:27:42.441Z,83.16
2022-12-24T09:30:11.955Z,83.29
2022-12-24T09:32:39.698Z,83.47
2022-12-24T09:35:08.406Z,83.44
2022-12-24T09:37:37.377Z,83.42
2022-12-24T09:40:06.493Z,83.51
2022-12-24T09:42:52.986Z,83.65
2022-12-24T09:45:31.921Z,83.63
2022-12-24T09:48:14.186Z,83.65
2022-12-24T09:50:56.366Z,83.74
2022-12-24T09:53:55.300Z,83.93
2022-12-24T09:56:40.564Z,83.86
2022-12-24T09:59:27.650Z,83.99
2022-12-24T10:01:55.588Z,84.03
2022-12-24T10:04:28.622Z,84.04
2022-12-24T10:07:19.614Z,83.99
2022-12-24T10:09:58.784Z,84.13
2022-12-24T10:13:13.490Z,84.26
2022-12-24T10:16:02.600Z,84.30
2022-12-24T10:18:49.676Z,84.73
2022-12-24T10:21:55.062Z,84.46
2022-12-24T10:24:34.162Z,84.78
2022-12-24T10:27:10.022Z,84.97
2022-12-24T10:29:45.678Z,84.47
2022-12-24T10:32:30.160Z,84.60
2022-12-24T10:35:18.201Z,84.36
2022-12-24T10:37:49.238Z,84.12
2022-12-24T10:40:39.955Z,84.37
2022-12-24T10:43:17.862Z,84.37
2022-12-24T10:45:56.025Z,84.35
2022-12-24T10:48:50.072Z,84.28
2022-12-24T11:06:01.146Z,83.40
2022-12-24T11:08:28.770Z,83.44
2022-12-24T11:11:07.177Z,83.61
2022-12-24T11:13:43.233Z,83.76
2022-12-24T11:16:25.694Z,83.77
2022-12-24T11:18:57.491Z,83.73
2022-12-24T11:21:32.636Z,83.65
2022-12-24T11:24:14.611Z,83.67
2022-12-24T11:26:44.037Z,83.67
2022-12-24T11:29:24.973Z,83.64
2022-12-24T11:32:05.469Z,83.67
2022-12-24T11:34:33.507Z,83.80
2022-12-24T11:37:18.743Z,83.93
2022-12-24T11:39:55.886Z,84.01
2022-12-24T11:42:33.402Z,84.11
2022-12-24T11:45:05.231Z,84.20
2022-12-24T11:47:37.564Z,84.37
2022-12-24T11:50:29.522Z,84.58
2022-12-24T11:53:18.917Z,84.58
2022-12-24T11:55:56.010Z,84.68
2022-12-24T11:58:41.246Z,84.83
2022-12-24T12:01:27.938Z,84.91
2022-12-24T12:04:21.588Z,84.96
2022-12-24T12:06:57.974Z,85.08
2022-12-24T12:09:33.316Z,85.11
2022-12-24T12:12:09.387Z,85.18
2022-12-24T12:14:57.029Z,85.08
2022-12-24T12:17:42.374Z,85.26
2022-12-24T12:20:30.225Z,85.09
2022-12-24T12:23:09.167Z,84.90
2022-12-24T12:26:08.185Z,84.95
2022-12-24T12:28:59.362Z,84.87
2022-12-24T12:31:47.353Z,84.82
2022-12-24T12:34:38.580Z,84.81
2022-12-24T12:37:32.572Z,84.80
2022-12-24T12:40:00.512Z,84.74
2022-12-24T12:42:39.554Z,84.87
2022-12-24T12:45:31.940Z,84.82
2022-12-24T12:48:23.108Z,84.88
2022-12-24T12:51:04.789Z,84.97
2022-12-24T12:54:02.123Z,85.04
2022-12-24T12:56:35.670Z,85.11
2022-12-24T12:59:09.887Z,85.16
2022-12-24T13:01:52.248Z,85.45
2022-12-24T13:05:09.254Z,85.25
2022-12-24T13:07:53.570Z,85.26
2022-12-24T13:10:32.584Z,85.23
2022-12-24T13:13:28.324Z,85.21
2022-12-24T13:16:32.026Z,85.18
2022-12-24T13:19:19.547Z,85.15
2022-12-24T13:21:50.280Z,85.20
2022-12-24T13:24:27.917Z,85.26
2022-12-24T13:27:09.593Z,85.30
2022-12-24T13:30:09.286Z,85.27
2022-12-24T13:32:42.424Z,85.34
2022-12-24T13:35:24.591Z,85.29
2022-12-24T13:37:52.307Z,85.35
2022-12-24T13:40:27.685Z,85.27
2022-12-24T13:43:08.331Z,85.20
2022-12-24T13:45:44.204Z,85.00
2022-12-24T13:48:17.453Z,84.92
2022-12-24T13:50:50.633Z,84.87
2022-12-24T13:53:44.302Z,84.76
2022-12-24T13:56:20.316Z,84.69
2022-12-24T13:58:52.340Z,84.65
2022-12-24T14:01:36.553Z,84.68
2022-12-24T14:04:08.807Z,84.67
2022-12-24T14:06:40.052Z,84.83
2022-12-24T14:09:21.790Z,84.86
2022-12-24T14:12:07.045Z,84.93
2022-12-24T14:14:40.237Z,85.09
2022-12-24T14:17:26.111Z,85.13
2022-12-24T14:19:58.189Z,85.20
2022-12-24T14:22:41.573Z,85.32
2022-12-24T14:25:20.986Z,85.33
2022-12-24T14:28:02.633Z,85.48
2022-12-24T14:30:32.866Z,85.57
2022-12-24T14:33:00.744Z,85.58
2022-12-24T14:35:38.500Z,85.52
2022-12-24T14:38:13.939Z,85.50
2022-12-24T14:41:16.745Z,85.54
2022-12-24T14:44:37.010Z,85.50
2022-12-24T14:47:16.376Z,85.48
2022-12-24T14:50:10.863Z,85.45
2022-12-24T14:53:09.432Z,85.55
2022-12-24T14:55:33.195Z,85.33
2022-12-24T14:58:31.122Z,85.16
2022-12-24T15:01:23.985Z,84.77
2022-12-24T15:04:14.853Z,84.58
2022-12-24T15:06:53.419Z,84.83
2022-12-24T15:09:29.021Z,84.95
2022-12-24T15:12:02.471Z,84.89
2022-12-24T15:14:34.392Z,84.94
2022-12-24T15:17:04.208Z,84.99
2022-12-24T15:19:39.414Z,85.06
2022-12-24T15:22:15.282Z,85.10
2022-12-24T15:24:47.695Z,85.13
2022-12-24T15:27:23.226Z,85.34
2022-12-24T15:29:56.301Z,85.46
2022-12-24T15:32:24.554Z,85.64
2022-12-24T15:34:54.668Z,85.77
2022-12-24T15:37:26.026Z,85.81
2022-12-24T15:39:58.032Z,85.96
2022-12-24T15:42:27.459Z,85.99
2022-12-24T15:45:06.759Z,86.03
2022-12-24T15:47:45.146Z,86.06
2022-12-24T15:50:30.298Z,86.21
2022-12-24T15:53:20.640Z,86.17
2022-12-24T15:55:38.586Z,86.14
2022-12-24T15:58:28.852Z,85.91
2022-12-24T16:01:10.398Z,85.74
2022-12-24T16:03:54.888Z,85.90
2022-12-24T16:06:23.716Z,85.75
2022-12-24T16:08:51.444Z,85.65
2022-12-24T16:11:30.098Z,85.54
2022-12-24T16:14:18.384Z,85.42
2022-12-24T16:16:53.194Z,85.18
2022-12-24T16:19:37.753Z,85.00
2022-12-24T16:22:04.562Z,85.00
2022-12-24T16:24:35.718Z,84.93
2022-12-24T16:27:08.901Z,84.98
2022-12-24T16:29:36.627Z,85.10
2022-12-24T16:32:04.613Z,85.09
2022-12-24T16:34:32.913Z,85.16
2022-12-24T16:37:01.051Z,85.13
2022-12-24T16:39:34.465Z,85.09
2022-12-24T16:42:23.066Z,85.13
2022-12-24T16:44:52.954Z,85.26
2022-12-24T16:47:30.367Z,85.37
2022-12-24T16:50:01.051Z,85.46
2022-12-24T16:52:33.090Z,85.44
2022-12-24T16:55:03.699Z,85.53
2022-12-24T16:57:33.641Z,85.58
2022-12-24T17:00:06.257Z,85.47
2022-12-24T17:02:35.348Z,85.51
2022-12-24T17:05:03.318Z,85.39
2022-12-24T17:07:31.401Z,85.39
2022-12-24T17:09:59.593Z,85.32
2022-12-24T17:12:27.337Z,85.24
2022-12-24T17:14:54.807Z,85.15
2022-12-24T17:17:28.906Z,85.22
2022-12-24T17:19:57.088Z,85.06
2022-12-24T17:22:27.247Z,84.97
2022-12-24T17:24:55.608Z,85.04
2022-12-24T17:27:24.126Z,84.92
2022-12-24T17:29:52.549Z,84.76
2022-12-24T17:32:20.310Z,84.78
2022-12-24T17:34:49.765Z,84.72
2022-12-24T17:37:17.745Z,84.73
2022-12-24T17:39:45.441Z,84.77
2022-12-24T17:42:13.166Z,84.72
2022-12-24T17:44:40.834Z,84.75
2022-12-24T17:47:08.374Z,84.80
2022-12-24T17:49:36.197Z,84.88
2022-12-24T17:52:04.336Z,84.94
2022-12-24T17:54:32.273Z,84.97
2022-12-24T17:56:59.940Z,85.10
2022-12-24T17:59:27.718Z,85.21
2022-12-24T18:01:55.461Z,85.28
2022-12-24T18:04:23.426Z,85.29
2022-12-24T18:06:53.769Z,85.25
2022-12-24T18:09:20.571Z,85.20
2022-12-24T18:11:48.835Z,85.15
2022-12-24T18:14:16.456Z,85.27
2022-12-24T18:16:44.074Z,85.31
2022-12-24T18:19:12.570Z,85.28
2022-12-24T18:21:40.811Z,85.24
2022-12-24T18:24:10.100Z,85.17
2022-12-24T18:26:38.312Z,85.28
2022-12-24T18:29:08.021Z,85.24
2022-12-24T18:31:36.418Z,85.17
2022-12-24T18:34:07.617Z,85.26
2022-12-24T18:36:35.401Z,85.27
2022-12-24T18:39:03.997Z,85.23
2022-12-24T18:41:31.620Z,85.20
2022-12-24T18:43:59.540Z,85.13
2022-12-24T18:46:33.410Z,85.12
2022-12-24T18:49:01.945Z,85.04
2022-12-24T18:51:34.768Z,84.99
2022-12-24T18:54:04.308Z,84.95
2022-12-24T18:56:32.452Z,84.95
2022-12-24T18:59:02.427Z,84.93
2022-12-24T19:01:34.277Z,85.01
2022-12-24T19:04:03.057Z,85.13
2022-12-24T19:06:30.648Z,85.15
2022-12-24T19:09:00.302Z,85.18
2022-12-24T19:11:31.208Z,85.31
2022-12-24T19:14:00.620Z,85.47
2022-12-24T19:16:32.237Z,85.54
2022-12-24T19:19:00.081Z,85.35
2022-12-24T19:21:28.123Z,85.49
2022-12-24T19:23:55.619Z,85.59
2022-12-24T19:26:23.714Z,85.61
2022-12-24T19:28:51.619Z,85.61
2022-12-24T19:31:23.677Z,85.59
2022-12-24T19:33:55.568Z,85.66
2022-12-24T19:36:28.452Z,85.63
2022-12-24T19:38:57.877Z,85.54
2022-12-24T19:41:28.689Z,85.40
2022-12-24T19:43:59.734Z,85.43
2022-12-24T19:46:32.399Z,85.55
2022-12-24T19:49:04.537Z,85.37
2022-12-24T19:51:33.312Z,85.38
2022-12-24T19:54:01.608Z,85.51
2022-12-24T19:56:32.143Z,85.73
2022-12-24T19:59:01.025Z,85.72
2022-12-24T20:01:32.152Z,85.71
2022-12-24T20:04:01.262Z,85.90
2022-12-24T20:06:33.573Z,85.94
2022-12-24T20:09:04.845Z,86.11
2022-12-24T20:11:33.494Z,86.22
2022-12-24T20:14:04.004Z,86.20
2022-12-24T20:16:31.894Z,86.11
2022-12-24T20:19:03.032Z,86.17
2022-12-24T20:21:31.454Z,86.23
2022-12-24T20:23:59.349Z,86.40
2022-12-24T20:26:28.597Z,86.50
2022-12-24T20:28:56.588Z,86.50
2022-12-24T20:31:29.371Z,86.60
2022-12-24T20:33:59.082Z,86.68
2022-12-24T20:36:29.382Z,86.78
2022-12-24T20:38:59.286Z,86.82
2022-12-24T20:41:30.017Z,86.85
2022-12-24T20:43:59.436Z,86.90
2022-12-24T20:46:28.370Z,86.88
2022-12-24T20:48:59.988Z,86.92
2022-12-24T20:51:28.422Z,86.91
2022-12-24T20:53:59.451Z,86.68
2022-12-24T20:56:27.890Z,86.52
2022-12-24T20:58:55.391Z,86.17
2022-12-24T21:01:25.996Z,86.05
2022-12-24T21:03:55.889Z,86.01
2022-12-24T21:06:24.438Z,85.95
2022-12-24T21:08:54.032Z,85.87
2022-12-24T21:11:40.678Z,85.71
2022-12-24T21:14:10.623Z,85.61
2022-12-24T21:16:40.021Z,85.55
2022-12-24T21:19:11.259Z,85.62
2022-12-24T21:21:38.856Z,85.70
2022-12-24T21:24:07.240Z,85.80
2022-12-24T21:26:35.265Z,86.04
2022-12-24T21:29:08.472Z,86.09
2022-12-24T21:31:37.548Z,86.45
2022-12-24T21:34:05.736Z,86.72
2022-12-24T21:36:33.769Z,86.87
2022-12-24T21:39:01.316Z,87.59
2022-12-24T21:41:28.966Z,87.57
2022-12-24T21:43:56.531Z,87.40
2022-12-24T21:46:25.502Z,87.56
2022-12-24T21:49:12.848Z,87.58
2022-12-24T21:51:42.839Z,87.63
2022-12-24T21:54:28.964Z,87.60
2022-12-24T21:57:20.086Z,87.71
2022-12-24T21:59:53.877Z,87.85
2022-12-24T22:02:26.664Z,87.64
2022-12-24T22:04:54.683Z,87.57
2022-12-24T22:07:44.251Z,87.44
2022-12-24T22:10:32.561Z,87.24
2022-12-24T22:13:02.974Z,87.05
2022-12-24T22:15:30.566Z,86.92
2022-12-24T22:17:58.478Z,86.76
2022-12-24T22:20:26.363Z,86.66
2022-12-24T22:22:53.855Z,86.56
2022-12-24T22:25:21.857Z,86.51
2022-12-24T22:27:49.317Z,86.34
2022-12-24T22:30:17.238Z,86.35
2022-12-24T22:32:44.888Z,86.38
2022-12-24T22:35:12.729Z,86.27
2022-12-24T22:37:40.445Z,86.27
2022-12-24T22:40:10.417Z,86.34
2022-12-24T22:42:37.988Z,86.42
2022-12-24T22:45:06.774Z,86.37
2022-12-24T22:47:34.675Z,86.44
2022-12-24T22:50:02.369Z,86.54
2022-12-24T22:52:35.427Z,86.59
2022-12-24T22:55:03.366Z,86.62
2022-12-24T22:57:31.350Z,86.68
2022-12-24T22:59:58.917Z,86.71
2022-12-24T23:02:28.680Z,86.87
2022-12-24T23:04:56.266Z,86.95
2022-12-24T23:07:24.484Z,86.79
2022-12-24T23:09:51.893Z,86.71
2022-12-24T23:12:21.501Z,86.68
2022-12-24T23:14:58.182Z,86.49
2022-12-24T23:17:25.726Z,86.36
2022-12-24T23:19:53.371Z,86.33
2022-12-24T23:22:20.984Z,86.10
2022-12-24T23:24:48.573Z,86.00
2022-12-24T23:27:16.420Z,85.81
2022-12-24T23:29:44.146Z,85.70
2022-12-24T23:32:11.731Z,85.86
2022-12-24T23:34:39.358Z,85.92
2022-12-24T23:37:07.185Z,85.96
2022-12-24T23:39:34.825Z,85.90
2022-12-24T23:42:02.470Z,86.45
2022-12-24T23:44:32.566Z,87.98
2022-12-24T23:46:59.721Z,88.78
2022-12-24T23:49:27.807Z,88.85
2022-12-24T23:51:55.455Z,89.31
2022-12-24T23:54:22.751Z,89.26
2022-12-24T23:56:50.168Z,90.49
2022-12-24T23:59:17.904Z,89.72
